Time;durP1;ratioP1;P1;durP2;ratioP2;P2;SDS_P1;SDS_P2;PMS_P1;PMS_P2;Temp;Humidity;BMP_temperature;BMP_pressure;BME280_temperature;BME280_humidity;BME280_pressure;Samples;Min_cycle;Max_cycle;Signal;HPM_P1;HPM_P2
2022/07/16 00:01:23;;;;;;;516.38;493.77;;;20.70;96.60;;;;;;5027235;28;20282;-85
2022/07/16 00:03:54;;;;;;;485.53;465.00;;;20.70;96.70;;;;;;5024220;28;20282;-84
2022/07/16 00:06:21;;;;;;;571.78;544.95;;;20.70;96.70;;;;;;5026129;28;20457;-83
2022/07/16 00:08:48;;;;;;;608.13;578.75;;;20.70;96.80;;;;;;5033616;28;20569;-84
2022/07/16 00:11:15;;;;;;;588.65;560.47;;;20.70;96.80;;;;;;5027467;28;20212;-84
2022/07/16 00:13:42;;;;;;;504.40;482.70;;;20.70;96.90;;;;;;5015129;28;20291;-86
2022/07/16 00:16:10;;;;;;;440.30;422.92;;;20.70;97.00;;;;;;5027564;28;20213;-85
2022/07/16 00:21:23;;;;;;;523.35;500.35;;;20.70;97.10;;;;;;5035856;28;20345;-85
2022/07/16 00:23:50;;;;;;;585.95;557.97;;;20.60;97.10;;;;;;5034295;28;20193;-85
2022/07/16 00:26:17;;;;;;;637.63;605.65;;;20.60;97.20;;;;;;5035318;28;20693;-89
2022/07/16 00:28:43;;;;;;;631.28;599.83;;;20.60;97.20;;;;;;5036343;28;20227;-89
2022/07/16 00:31:10;;;;;;;564.40;538.33;;;20.60;97.30;;;;;;5038547;28;20214;-89
2022/07/16 00:33:37;;;;;;;558.92;533.35;;;20.60;97.30;;;;;;5024157;28;20200;-89
2022/07/16 00:36:05;;;;;;;469.00;450.02;;;20.60;97.30;;;;;;5043519;28;20566;-89
2022/07/16 00:38:33;;;;;;;313.73;302.88;;;20.60;97.40;;;;;;5022495;28;20192;-88
2022/07/16 00:41:00;;;;;;;389.67;375.35;;;20.60;97.40;;;;;;5035658;28;20206;-89
2022/07/16 00:43:27;;;;;;;577.50;550.25;;;20.60;97.50;;;;;;5042828;28;20206;-90
2022/07/16 00:45:54;;;;;;;601.75;572.63;;;20.60;97.50;;;;;;5044131;28;20649;-90
2022/07/16 00:48:20;;;;;;;580.83;553.13;;;20.60;97.50;;;;;;5030855;28;20224;-90
2022/07/16 00:50:47;;;;;;;595.35;566.88;;;20.60;97.60;;;;;;5029127;28;20537;-90
2022/07/16 00:53:15;;;;;;;599.20;570.40;;;20.60;97.60;;;;;;5035388;28;20217;-89
2022/07/16 00:55:43;;;;;;;643.72;611.70;;;20.60;97.70;;;;;;5042963;28;20213;-91
2022/07/16 00:58:10;;;;;;;392.02;377.27;;;20.60;97.70;;;;;;5038427;28;20191;-90
2022/07/16 01:00:37;;;;;;;323.75;312.40;;;20.50;97.70;;;;;;5019783;28;20207;-90
2022/07/16 01:03:05;;;;;;;304.58;294.15;;;20.50;97.80;;;;;;5024335;28;20595;-90
2022/07/16 01:05:32;;;;;;;336.83;324.83;;;20.50;97.80;;;;;;5030626;28;20204;-89
2022/07/16 01:07:59;;;;;;;327.75;316.15;;;20.50;97.90;;;;;;5034463;28;20194;-89
2022/07/16 01:10:26;;;;;;;302.38;291.92;;;20.50;98.00;;;;;;5018501;28;20726;-90
2022/07/16 01:12:58;;;;;;;307.15;296.65;;;20.50;98.00;;;;;;5038934;28;20200;-90
2022/07/16 01:15:25;;;;;;;315.13;304.23;;;20.50;98.00;;;;;;5037993;28;20265;-89
2022/07/16 01:17:52;;;;;;;331.40;319.70;;;20.50;98.00;;;;;;5029656;28;20203;-90
2022/07/16 01:20:18;;;;;;;358.05;345.27;;;20.50;98.10;;;;;;5035225;28;20592;-89
2022/07/16 01:22:47;;;;;;;378.05;364.25;;;20.50;98.10;;;;;;5035039;28;20307;-89
2022/07/16 01:25:15;;;;;;;403.83;388.58;;;20.50;98.20;;;;;;5024205;28;20195;-89
2022/07/16 01:27:43;;;;;;;381.77;367.77;;;20.50;98.30;;;;;;5032213;28;20203;-91
2022/07/16 01:30:10;;;;;;;395.35;380.50;;;20.50;98.30;;;;;;5042262;28;20225;-88
2022/07/16 01:32:37;;;;;;;386.20;371.90;;;20.50;98.30;;;;;;5025294;28;20206;-89
2022/07/16 01:35:06;;;;;;;364.63;351.45;;;20.40;98.30;;;;;;5016423;28;20196;-89
2022/07/16 01:37:33;;;;;;;392.38;377.80;;;20.40;98.40;;;;;;5016073;28;20669;-90
2022/07/16 01:40:00;;;;;;;378.35;364.48;;;20.40;98.70;;;;;;5030544;28;20668;-88
2022/07/16 01:42:28;;;;;;;400.80;385.80;;;20.40;98.50;;;;;;5034634;28;20531;-88
2022/07/16 01:44:55;;;;;;;383.25;369.15;;;20.40;98.50;;;;;;5033929;28;20217;-88
2022/07/16 01:47:22;;;;;;;380.27;366.33;;;20.40;98.60;;;;;;5022017;28;20653;-89
2022/07/16 01:49:49;;;;;;;377.40;363.40;;;20.40;98.60;;;;;;5040167;28;20214;-89
2022/07/16 01:52:17;;;;;;;381.85;367.88;;;20.40;98.70;;;;;;5044462;28;20212;-89
2022/07/16 01:54:47;;;;;;;412.63;396.98;;;20.30;98.70;;;;;;5031740;28;20202;-88
2022/07/16 01:57:15;;;;;;;437.85;420.55;;;20.30;98.70;;;;;;5043119;28;20554;-89
2022/07/16 01:59:43;;;;;;;411.85;396.27;;;20.30;98.70;;;;;;5045786;28;20211;-90
2022/07/16 02:02:10;;;;;;;484.00;463.80;;;20.30;98.80;;;;;;5029231;28;20714;-89
2022/07/16 02:04:37;;;;;;;526.72;503.33;;;20.30;98.80;;;;;;5027720;28;20204;-89
2022/07/16 02:07:04;;;;;;;540.10;516.00;;;20.30;98.90;;;;;;5047990;28;20198;-89
2022/07/16 02:09:31;;;;;;;547.00;522.33;;;20.30;99.00;;;;;;5036020;28;20233;-88
2022/07/16 02:11:58;;;;;;;570.92;544.28;;;20.30;99.00;;;;;;5043321;28;20202;-89
2022/07/16 02:14:25;;;;;;;581.90;554.42;;;20.20;99.00;;;;;;5030505;28;20209;-89
2022/07/16 02:16:53;;;;;;;647.83;615.00;;;20.30;99.10;;;;;;5021750;28;20205;-89
2022/07/16 02:19:20;;;;;;;609.17;579.65;;;20.20;99.10;;;;;;5035495;28;20198;-92
2022/07/16 02:21:47;;;;;;;566.83;540.42;;;20.30;99.20;;;;;;5040747;28;20191;-93
2022/07/16 02:24:14;;;;;;;610.83;581.28;;;20.20;99.20;;;;;;5042511;28;20198;-93
2022/07/16 02:26:41;;;;;;;518.70;496.10;;;20.20;99.20;;;;;;5041047;28;20202;-93
2022/07/16 02:29:08;;;;;;;582.00;554.67;;;20.20;99.20;;;;;;5040002;28;20230;-94
2022/07/16 02:31:34;;;;;;;679.33;643.78;;;20.20;99.30;;;;;;5038712;28;20202;-92
2022/07/16 02:34:02;;;;;;;653.95;620.97;;;20.20;99.30;;;;;;5041685;28;20201;-93
2022/07/16 02:36:30;;;;;;;537.00;512.88;;;20.20;99.30;;;;;;5046010;28;20297;-89
2022/07/16 02:38:57;;;;;;;535.50;511.60;;;20.20;99.40;;;;;;5041662;28;20234;-90
2022/07/16 02:41:24;;;;;;;530.83;507.20;;;20.20;99.40;;;;;;5033493;28;20200;-91
2022/07/16 02:43:51;;;;;;;557.60;532.05;;;20.20;99.40;;;;;;5045798;28;20326;-90
2022/07/16 02:46:18;;;;;;;579.97;552.65;;;20.20;99.50;;;;;;5040536;28;20213;-92
2022/07/16 02:48:44;;;;;;;608.80;578.95;;;20.20;99.60;;;;;;5036136;28;20217;-90
2022/07/16 02:51:13;;;;;;;634.22;602.72;;;20.20;99.60;;;;;;5038281;28;20702;-91
2022/07/16 02:53:39;;;;;;;606.55;577.08;;;20.20;99.60;;;;;;5037350;28;20207;-91
2022/07/16 02:56:07;;;;;;;625.72;594.83;;;20.10;99.60;;;;;;5043759;28;20210;-84
2022/07/16 02:58:33;;;;;;;627.30;596.33;;;20.10;99.60;;;;;;5028595;28;20210;-84
2022/07/16 03:01:00;;;;;;;626.58;595.75;;;20.10;99.70;;;;;;5039060;28;20854;-84
2022/07/16 03:03:27;;;;;;;591.88;563.47;;;20.10;99.70;;;;;;5021158;28;20223;-85
2022/07/16 03:05:54;;;;;;;576.33;549.22;;;20.10;99.70;;;;;;5039280;28;20198;-83
2022/07/16 03:08:22;;;;;;;396.65;381.75;;;20.10;99.80;;;;;;5029883;28;20214;-85
2022/07/16 03:10:49;;;;;;;453.38;435.15;;;20.10;99.80;;;;;;5031402;28;20215;-84
2022/07/16 03:13:16;;;;;;;436.02;418.95;;;20.10;99.80;;;;;;5045334;28;20191;-86
2022/07/16 03:15:43;;;;;;;425.60;409.20;;;20.10;99.90;;;;;;5041470;28;20624;-84
2022/07/16 03:18:09;;;;;;;456.23;438.00;;;20.10;99.90;;;;;;5037878;28;20202;-85
2022/07/16 03:20:36;;;;;;;433.70;416.77;;;20.10;99.90;;;;;;5035760;28;20191;-83
2022/07/16 03:23:03;;;;;;;511.83;489.55;;;20.10;99.90;;;;;;5035988;28;20205;-86
2022/07/16 03:25:31;;;;;;;366.20;352.92;;;20.10;99.90;;;;;;5013973;28;20571;-85
2022/07/16 03:27:58;;;;;;;370.25;356.85;;;20.10;99.90;;;;;;5028712;28;20201;-86
2022/07/16 03:30:25;;;;;;;340.85;328.73;;;20.10;99.90;;;;;;5041329;28;20697;-87
2022/07/16 03:32:52;;;;;;;341.75;329.73;;;20.00;99.90;;;;;;5037430;28;20680;-86
2022/07/16 03:35:19;;;;;;;392.55;378.08;;;20.00;99.90;;;;;;5025997;28;20650;-86
2022/07/16 03:40:32;;;;;;;409.40;394.08;;;20.00;99.90;;;;;;5037123;28;20358;-86
2022/07/16 03:42:59;;;;;;;409.17;393.65;;;20.00;99.90;;;;;;5030405;28;20696;-88
2022/07/16 03:45:25;;;;;;;383.10;368.95;;;20.00;99.90;;;;;;5040082;28;20682;-85
2022/07/16 03:47:52;;;;;;;439.67;422.52;;;20.00;99.90;;;;;;5040851;28;20199;-84
2022/07/16 03:50:19;;;;;;;655.35;621.53;;;20.00;99.90;;;;;;5022805;28;20226;-85
2022/07/16 03:52:46;;;;;;;558.45;532.95;;;20.00;99.90;;;;;;5040095;28;20202;-84
2022/07/16 03:55:13;;;;;;;484.33;463.95;;;20.00;99.90;;;;;;5044340;28;20221;-84
2022/07/16 03:57:42;;;;;;;437.48;420.23;;;20.00;99.90;;;;;;5036366;28;20202;-84
2022/07/16 04:00:10;;;;;;;436.80;419.80;;;20.00;99.90;;;;;;5033987;28;20574;-84
2022/07/16 04:02:36;;;;;;;407.38;392.10;;;20.00;99.90;;;;;;5023678;28;20729;-84
2022/07/16 04:05:04;;;;;;;389.08;374.63;;;20.00;99.90;;;;;;5028434;28;20202;-85
2022/07/16 04:07:31;;;;;;;370.83;357.33;;;19.90;99.90;;;;;;5030785;28;20230;-84
2022/07/16 04:09:58;;;;;;;383.38;369.08;;;20.00;99.90;;;;;;5027559;28;20222;-86
2022/07/16 04:12:24;;;;;;;435.05;418.00;;;20.00;99.90;;;;;;5038813;28;20566;-85
2022/07/16 04:14:54;;;;;;;506.30;484.60;;;19.90;99.90;;;;;;5031209;28;20638;-84
2022/07/16 04:17:21;;;;;;;540.05;515.70;;;19.90;99.90;;;;;;5030880;28;20205;-85
2022/07/16 04:19:47;;;;;;;374.05;360.35;;;19.90;99.90;;;;;;5021499;28;20207;-84
2022/07/16 04:22:14;;;;;;;363.33;350.17;;;19.90;99.90;;;;;;5040739;28;20198;-84
2022/07/16 04:24:41;;;;;;;396.75;381.90;;;19.90;99.90;;;;;;5022295;28;20204;-84
2022/07/16 04:27:08;;;;;;;411.23;395.73;;;19.90;99.90;;;;;;5041550;28;20210;-83
2022/07/16 04:29:34;;;;;;;442.73;425.35;;;19.90;99.90;;;;;;5031696;28;20205;-85
2022/07/16 04:32:03;;;;;;;471.15;451.90;;;19.90;99.90;;;;;;5032260;28;20217;-84
2022/07/16 04:34:30;;;;;;;490.83;470.15;;;19.90;99.90;;;;;;5026159;28;20191;-84
2022/07/16 04:36:57;;;;;;;492.00;471.25;;;19.90;99.90;;;;;;5036081;28;20194;-84
2022/07/16 04:39:23;;;;;;;534.95;511.08;;;19.90;99.90;;;;;;5033597;28;20205;-84
2022/07/16 04:41:50;;;;;;;520.70;497.98;;;19.90;99.90;;;;;;5031057;28;20200;-84
2022/07/16 04:44:17;;;;;;;564.97;539.25;;;19.90;99.90;;;;;;5032825;28;20206;-84
2022/07/16 04:46:43;;;;;;;566.97;540.70;;;19.90;99.90;;;;;;5033552;28;20205;-83
2022/07/16 04:49:11;;;;;;;605.40;576.22;;;19.90;99.90;;;;;;5030238;28;20977;-85
2022/07/16 04:51:38;;;;;;;533.13;509.55;;;19.90;99.90;;;;;;5032948;28;20219;-85
2022/07/16 04:54:05;;;;;;;572.78;546.22;;;19.90;99.90;;;;;;5034549;28;20193;-84
2022/07/16 04:56:31;;;;;;;514.17;491.70;;;19.90;99.90;;;;;;5039704;28;20202;-83
2022/07/16 04:58:58;;;;;;;545.38;520.80;;;19.90;99.90;;;;;;5022128;28;20205;-86
2022/07/16 05:01:25;;;;;;;575.75;548.80;;;19.90;99.90;;;;;;5018321;28;20499;-85
2022/07/16 05:03:52;;;;;;;565.97;540.03;;;19.90;99.90;;;;;;5024290;28;20219;-85
2022/07/16 05:06:20;;;;;;;536.63;512.53;;;19.90;99.90;;;;;;5038095;28;20214;-87
2022/07/16 05:08:46;;;;;;;601.22;572.38;;;19.90;99.90;;;;;;5021516;28;20198;-85
2022/07/16 05:11:13;;;;;;;628.83;597.80;;;19.90;99.90;;;;;;5032213;28;20218;-84
2022/07/16 05:13:40;;;;;;;646.72;614.25;;;19.80;99.90;;;;;;5039104;28;20206;-84
2022/07/16 05:16:07;;;;;;;630.15;598.85;;;19.90;99.90;;;;;;5017169;28;20222;-85
2022/07/16 05:18:34;;;;;;;674.80;640.22;;;19.80;99.90;;;;;;5035469;28;20205;-84
2022/07/16 05:21:01;;;;;;;631.97;600.33;;;19.90;99.90;;;;;;5031139;28;20204;-85
2022/07/16 05:23:29;;;;;;;646.10;613.70;;;19.90;99.90;;;;;;5033184;28;20564;-86
2022/07/16 05:25:55;;;;;;;662.00;628.53;;;19.90;99.90;;;;;;5038686;28;20204;-85
2022/07/16 05:28:22;;;;;;;743.42;703.05;;;19.90;99.90;;;;;;5030388;28;20205;-83
2022/07/16 05:30:49;;;;;;;792.60;747.53;;;19.90;99.90;;;;;;5022097;28;20213;-86
2022/07/16 05:33:16;;;;;;;810.00;763.92;;;19.90;99.90;;;;;;5030296;28;20222;-85
2022/07/16 05:35:42;;;;;;;824.88;777.75;;;19.90;99.90;;;;;;5034298;28;20197;-83
2022/07/16 05:38:10;;;;;;;823.22;775.72;;;19.90;99.90;;;;;;5048256;28;20206;-85
2022/07/16 05:40:38;;;;;;;823.90;776.15;;;19.90;99.90;;;;;;5031102;28;20195;-86
2022/07/16 05:43:05;;;;;;;824.17;776.60;;;19.90;99.90;;;;;;5032494;28;20206;-84
2022/07/16 05:45:33;;;;;;;874.53;822.65;;;20.00;99.90;;;;;;5031678;28;20206;-84
2022/07/16 05:47:59;;;;;;;899.28;844.35;;;20.00;99.90;;;;;;5036985;28;20212;-84
2022/07/16 05:50:26;;;;;;;917.85;859.47;;;20.00;99.90;;;;;;5029488;28;20228;-85
2022/07/16 05:52:53;;;;;;;866.22;813.63;;;20.00;99.90;;;;;;5030819;28;20568;-85
2022/07/16 05:55:20;;;;;;;886.35;833.85;;;20.10;99.90;;;;;;5034406;28;20213;-85
2022/07/16 05:57:48;;;;;;;858.15;807.15;;;20.10;99.90;;;;;;5028806;28;20751;-83
2022/07/16 06:00:15;;;;;;;861.60;810.95;;;20.10;99.90;;;;;;5031858;28;20269;-83
2022/07/16 06:02:42;;;;;;;684.00;647.97;;;20.20;99.90;;;;;;5020872;28;20219;-84
2022/07/16 06:05:10;;;;;;;842.08;792.97;;;20.30;99.90;;;;;;5029684;28;20206;-83
2022/07/16 06:07:37;;;;;;;841.97;792.72;;;20.40;99.90;;;;;;5029772;28;20684;-83
2022/07/16 06:10:04;;;;;;;766.33;724.35;;;20.40;99.90;;;;;;5027671;28;20195;-84
2022/07/16 06:12:31;;;;;;;658.65;625.10;;;20.40;99.90;;;;;;5017611;28;20207;-84
2022/07/16 06:14:59;;;;;;;647.25;614.40;;;20.40;99.90;;;;;;5041326;28;20649;-84
2022/07/16 06:17:26;;;;;;;604.67;575.63;;;20.40;99.90;;;;;;5014343;28;20196;-84
2022/07/16 06:19:53;;;;;;;562.72;536.55;;;20.30;99.90;;;;;;5030412;28;20213;-83
2022/07/16 06:22:19;;;;;;;559.85;534.15;;;20.30;99.90;;;;;;5027934;28;20484;-83
2022/07/16 06:24:46;;;;;;;579.45;551.80;;;20.20;99.90;;;;;;5032155;28;20206;-83
2022/07/16 06:27:13;;;;;;;598.13;569.60;;;20.20;99.90;;;;;;5031141;28;20297;-83
2022/07/16 06:29:39;;;;;;;634.55;603.05;;;20.20;99.90;;;;;;5041525;28;20636;-84
2022/07/16 06:32:08;;;;;;;651.95;619.15;;;20.20;99.90;;;;;;5036390;28;20213;-83
2022/07/16 06:34:35;;;;;;;650.45;617.70;;;20.20;99.90;;;;;;5017620;28;20194;-83
2022/07/16 06:37:01;;;;;;;647.63;615.10;;;20.10;99.90;;;;;;5013855;28;20221;-83
2022/07/16 06:39:28;;;;;;;733.08;693.85;;;20.10;99.90;;;;;;5033197;28;20205;-84
2022/07/16 06:41:55;;;;;;;848.75;799.88;;;20.10;99.90;;;;;;5038466;28;20201;-83
2022/07/16 06:44:22;;;;;;;915.35;858.17;;;20.10;99.90;;;;;;5040613;28;20662;-83
2022/07/16 06:46:49;;;;;;;875.58;822.03;;;20.10;99.90;;;;;;5040512;28;20195;-83
2022/07/16 06:49:17;;;;;;;743.88;702.97;;;20.10;99.90;;;;;;5037773;28;20192;-84
2022/07/16 06:51:44;;;;;;;683.15;647.78;;;20.10;99.90;;;;;;5031169;28;20222;-83
2022/07/16 06:54:11;;;;;;;696.58;659.95;;;20.20;99.90;;;;;;5039761;28;20224;-84
2022/07/16 06:56:37;;;;;;;839.55;789.67;;;20.20;99.90;;;;;;5040305;28;20207;-83
2022/07/16 06:59:04;;;;;;;478.13;458.38;;;20.30;99.90;;;;;;5033117;28;20400;-83
2022/07/16 07:01:31;;;;;;;479.85;459.80;;;20.20;99.90;;;;;;5027426;28;20191;-83
2022/07/16 07:03:58;;;;;;;451.80;433.85;;;20.30;99.90;;;;;;5023455;28;20201;-82
2022/07/16 07:06:26;;;;;;;480.33;460.42;;;20.30;99.90;;;;;;5042245;28;20598;-83
2022/07/16 07:08:52;;;;;;;538.78;514.78;;;20.30;99.90;;;;;;5030820;28;20226;-83
2022/07/16 07:11:19;;;;;;;532.90;509.35;;;20.30;99.90;;;;;;5039442;28;20222;-84
2022/07/16 07:13:46;;;;;;;527.10;504.02;;;20.40;99.90;;;;;;5029831;28;20200;-83
2022/07/16 07:16:12;;;;;;;504.77;483.08;;;20.40;99.90;;;;;;5029327;28;20425;-83
2022/07/16 07:18:39;;;;;;;556.47;531.00;;;20.40;99.90;;;;;;5032322;28;20210;-83
2022/07/16 07:21:06;;;;;;;523.97;501.17;;;20.40;99.90;;;;;;5049309;28;20195;-84
2022/07/16 07:23:34;;;;;;;507.30;485.58;;;20.50;99.90;;;;;;5019383;28;20195;-85
2022/07/16 07:26:01;;;;;;;541.10;516.75;;;20.60;99.90;;;;;;5045271;28;20198;-85
2022/07/16 07:28:28;;;;;;;546.63;522.03;;;20.90;99.90;;;;;;5026513;28;20211;-84
2022/07/16 07:30:56;;;;;;;522.97;499.98;;;21.10;99.90;;;;;;5019145;28;20302;-83
2022/07/16 07:33:23;;;;;;;516.53;493.92;;;21.30;99.80;;;;;;5031048;28;20646;-83
2022/07/16 07:35:50;;;;;;;560.25;534.38;;;21.50;99.40;;;;;;5038320;28;20198;-83
2022/07/16 07:38:16;;;;;;;538.27;514.03;;;21.60;99.00;;;;;;5013792;28;20197;-83
2022/07/16 07:40:45;;;;;;;537.47;513.33;;;21.80;98.60;;;;;;5027148;28;20445;-83
2022/07/16 07:43:11;;;;;;;613.97;583.90;;;21.90;98.30;;;;;;5028890;28;20957;-83
2022/07/16 07:45:38;;;;;;;619.77;589.00;;;22.10;97.90;;;;;;5034819;28;20469;-82
2022/07/16 07:48:05;;;;;;;610.43;580.50;;;22.30;97.30;;;;;;5038215;28;20818;-82
2022/07/16 07:50:33;;;;;;;550.87;525.67;;;22.30;97.00;;;;;;5028005;28;20468;-83
2022/07/16 07:53:00;;;;;;;563.67;537.30;;;22.10;97.20;;;;;;5026468;28;20494;-84
2022/07/16 07:55:27;;;;;;;586.97;558.80;;;22.20;97.30;;;;;;5037336;28;20436;-82
2022/07/16 07:57:55;;;;;;;534.80;510.70;;;22.30;97.10;;;;;;5020278;28;20475;-82
2022/07/16 08:00:22;;;;;;;612.23;581.97;;;22.50;96.60;;;;;;5020602;28;20466;-84
2022/07/16 08:02:48;;;;;;;640.57;607.97;;;22.80;96.10;;;;;;5022631;28;20478;-83
2022/07/16 08:05:15;;;;;;;629.93;597.50;;;23.00;95.60;;;;;;5024047;28;21040;-83
2022/07/16 08:07:45;;;;;;;647.37;614.17;;;23.20;95.10;;;;;;5018363;28;20459;-83
2022/07/16 08:10:12;;;;;;;675.23;639.30;;;23.30;94.70;;;;;;5033395;28;21063;-83
2022/07/16 08:12:39;;;;;;;660.07;625.67;;;23.50;94.30;;;;;;5030426;28;21000;-83
2022/07/16 08:15:09;;;;;;;572.93;545.50;;;23.50;94.00;;;;;;5034829;28;20450;-83
2022/07/16 08:17:37;;;;;;;655.83;621.60;;;23.60;93.70;;;;;;5040467;28;20448;-85
2022/07/16 08:20:05;;;;;;;620.37;588.93;;;23.70;93.60;;;;;;5028562;28;20457;-87
2022/07/16 08:22:31;;;;;;;722.57;682.77;;;23.60;93.30;;;;;;5026016;28;20487;-85
2022/07/16 08:27:42;;;;;;;636.60;604.03;;;23.00;94.10;;;;;;5013634;28;20446;-86
2022/07/16 08:30:11;;;;;;;684.33;647.83;;;22.60;94.80;;;;;;5013131;28;20935;-84
2022/07/16 08:32:38;;;;;;;792.17;747.07;;;22.40;95.20;;;;;;5032685;28;20473;-85
2022/07/16 08:35:05;;;;;;;891.83;840.23;;;22.40;95.30;;;;;;5022324;28;20466;-85
2022/07/16 08:37:35;;;;;;;974.50;915.70;;;22.40;95.60;;;;;;5049039;28;20952;-86
2022/07/16 08:40:04;;;;;;;873.00;822.03;;;22.50;95.50;;;;;;5023483;28;20451;-86
2022/07/16 08:42:33;;;;;;;786.87;741.87;;;22.70;94.90;;;;;;5028262;28;20975;-87
2022/07/16 08:45:00;;;;;;;657.67;623.37;;;22.90;94.50;;;;;;5043403;28;20515;-87
2022/07/16 08:47:30;;;;;;;681.43;645.07;;;23.10;94.40;;;;;;5028538;28;20467;-89
2022/07/16 08:49:59;;;;;;;719.90;680.47;;;23.20;93.90;;;;;;5022918;28;20453;-87
2022/07/16 08:52:28;;;;;;;739.67;698.70;;;23.20;93.50;;;;;;5043655;28;20481;-88
2022/07/16 08:54:56;;;;;;;722.43;682.83;;;23.20;93.60;;;;;;5031518;28;20453;-88
2022/07/16 08:57:25;;;;;;;787.63;742.53;;;23.10;93.80;;;;;;5012696;28;20623;-88
2022/07/16 08:59:52;;;;;;;822.13;774.37;;;22.90;94.00;;;;;;5016113;28;20474;-88
2022/07/16 09:02:20;;;;;;;919.20;865.50;;;22.70;94.30;;;;;;5023998;28;20481;-84
2022/07/16 09:04:48;;;;;;;768.43;724.97;;;22.70;94.50;;;;;;5028329;28;20470;-87
2022/07/16 09:07:15;;;;;;;753.03;711.00;;;22.70;94.50;;;;;;5044937;28;20451;-88
2022/07/16 09:09:44;;;;;;;762.67;719.63;;;22.90;94.30;;;;;;5030010;28;20445;-89
2022/07/16 09:12:11;;;;;;;733.43;692.93;;;23.00;94.20;;;;;;5016131;28;20558;-85
2022/07/16 09:14:38;;;;;;;748.30;706.47;;;23.20;93.60;;;;;;5017671;28;20869;-88
2022/07/16 09:17:05;;;;;;;732.17;691.57;;;23.30;93.00;;;;;;5018848;28;20671;-90
2022/07/16 09:19:31;;;;;;;720.43;680.70;;;23.40;93.00;;;;;;5029431;28;20458;-88
2022/07/16 09:22:02;;;;;;;765.03;721.83;;;23.30;92.70;;;;;;5029259;28;20829;-88
2022/07/16 09:24:34;;;;;;;815.33;767.93;;;23.30;92.90;;;;;;5021072;28;20454;-87
2022/07/16 09:27:02;;;;;;;801.63;755.40;;;23.30;93.20;;;;;;5030331;28;20457;-87
2022/07/16 09:29:29;;;;;;;817.47;769.67;;;23.40;93.00;;;;;;5051777;28;20441;-86
2022/07/16 09:31:56;;;;;;;788.00;742.67;;;23.40;92.70;;;;;;5029674;28;20994;-88
2022/07/16 09:34:22;;;;;;;548.30;522.57;;;23.50;92.80;;;;;;5025103;28;20471;-87
2022/07/16 09:36:57;;;;;;;587.37;558.57;;;23.50;92.80;;;;;;5040795;28;20984;-87
2022/07/16 09:39:25;;;;;;;553.17;527.27;;;23.50;92.80;;;;;;5030841;28;20985;-88
2022/07/16 09:41:52;;;;;;;572.37;544.87;;;23.40;92.60;;;;;;5019138;28;20838;-88
2022/07/16 09:44:20;;;;;;;524.87;501.13;;;23.30;92.70;;;;;;5023145;28;20454;-87
2022/07/16 09:47:02;;;;;;;527.83;503.93;;;23.20;92.80;;;;;;5025030;28;20920;-89
2022/07/16 09:49:31;;;;;;;573.17;545.67;;;23.20;92.80;;;;;;5034924;28;20457;-88
2022/07/16 09:51:59;;;;;;;564.20;537.30;;;23.10;92.70;;;;;;5035932;28;20542;-87
2022/07/16 09:54:29;;;;;;;651.83;617.70;;;23.10;93.00;;;;;;5025610;28;20469;-87
2022/07/16 09:57:07;;;;;;;624.00;592.27;;;23.10;93.00;;;;;;5042169;28;20813;-87
2022/07/16 09:59:34;;;;;;;453.27;434.83;;;23.10;92.80;;;;;;5033789;28;20457;-87
2022/07/16 10:02:02;;;;;;;428.27;411.37;;;23.00;93.10;;;;;;5023380;28;20830;-88
2022/07/16 10:04:29;;;;;;;457.50;438.63;;;23.00;93.20;;;;;;5020762;28;20950;-89
2022/07/16 10:06:57;;;;;;;441.50;423.87;;;23.00;92.50;;;;;;5032847;28;20976;-86
2022/07/16 10:09:24;;;;;;;442.57;424.93;;;23.10;93.00;;;;;;5038076;28;20974;-87
2022/07/16 10:11:53;;;;;;;448.00;429.67;;;23.00;92.70;;;;;;5032801;28;20477;-88
2022/07/16 10:14:21;;;;;;;425.07;408.37;;;23.10;92.80;;;;;;5019932;28;20462;-87
2022/07/16 10:16:48;;;;;;;395.70;380.63;;;23.10;92.70;;;;;;5044098;28;20458;-89
2022/07/16 10:19:16;;;;;;;411.97;395.73;;;23.10;93.00;;;;;;5024982;28;20473;-85
2022/07/16 10:22:17;;;;;;;391.53;376.57;;;23.00;92.70;;;;;;5021659;28;20995;-87
2022/07/16 10:24:45;;;;;;;417.80;401.53;;;23.00;93.00;;;;;;5027087;28;20469;-87
2022/07/16 10:27:29;;;;;;;403.83;388.30;;;23.00;93.10;;;;;;5037748;28;20750;-89
2022/07/16 10:30:09;;;;;;;394.40;379.50;;;23.10;92.80;;;;;;5039506;28;20553;-87
2022/07/16 10:33:18;;;;;;;445.73;427.77;;;23.10;92.80;;;;;;5023201;28;20492;-89
2022/07/16 10:35:47;;;;;;;419.17;402.87;;;23.20;92.50;;;;;;5023142;28;20806;-88
2022/07/16 10:38:16;;;;;;;456.40;437.67;;;23.20;92.40;;;;;;5034201;28;20460;-89
2022/07/16 10:40:46;;;;;;;436.73;419.33;;;23.20;92.20;;;;;;5041844;28;20457;-86
2022/07/16 10:43:17;;;;;;;430.70;413.50;;;23.30;91.80;;;;;;5027369;28;20461;-87
2022/07/16 10:45:54;;;;;;;434.47;417.27;;;23.20;92.30;;;;;;5025290;28;20531;-88
2022/07/16 10:48:21;;;;;;;449.57;431.27;;;23.20;92.20;;;;;;5028466;28;20481;-89
2022/07/16 10:51:11;;;;;;;446.90;428.83;;;23.20;92.00;;;;;;5036202;28;20907;-88
2022/07/16 10:54:13;;;;;;;469.97;450.37;;;23.20;91.80;;;;;;5033431;28;20931;-88
2022/07/16 10:56:45;;;;;;;452.37;434.13;;;23.20;91.40;;;;;;5019254;28;20850;-86
2022/07/16 10:59:15;;;;;;;457.87;439.13;;;23.10;91.90;;;;;;5015942;28;20451;-87
2022/07/16 11:01:43;;;;;;;442.50;424.60;;;23.10;92.20;;;;;;5012084;28;20478;-85
2022/07/16 11:04:12;;;;;;;476.27;456.10;;;23.10;92.10;;;;;;5014079;28;20447;-84
2022/07/16 11:06:40;;;;;;;460.33;441.53;;;23.00;92.30;;;;;;5015209;28;20474;-87
2022/07/16 11:09:08;;;;;;;502.67;480.77;;;23.00;92.10;;;;;;5030278;28;21835;-85
2022/07/16 11:11:37;;;;;;;509.80;487.27;;;23.00;92.30;;;;;;5015181;28;21182;-88
2022/07/16 11:14:06;;;;;;;560.43;533.93;;;23.10;92.30;;;;;;5010709;28;20490;-87
2022/07/16 11:16:35;;;;;;;811.27;764.97;;;23.10;92.20;;;;;;5011205;28;20464;-88
2022/07/16 11:19:03;;;;;;;552.50;526.57;;;23.10;92.30;;;;;;5015724;28;20459;-86
2022/07/16 11:21:30;;;;;;;759.83;717.37;;;23.10;92.30;;;;;;5015436;28;20785;-88
2022/07/16 11:23:59;;;;;;;577.37;549.67;;;23.20;92.30;;;;;;5010738;28;20458;-88
2022/07/16 11:26:27;;;;;;;600.43;570.83;;;23.20;91.50;;;;;;5017012;28;20485;-87
2022/07/16 11:28:55;;;;;;;570.83;543.63;;;23.10;92.00;;;;;;5012637;28;20475;-88
2022/07/16 11:31:26;;;;;;;657.43;622.87;;;23.10;91.70;;;;;;5030672;28;21037;-89
2022/07/16 11:33:57;;;;;;;630.60;598.37;;;23.10;91.90;;;;;;5021154;28;20490;-87
2022/07/16 11:36:28;;;;;;;591.33;562.43;;;23.10;92.10;;;;;;5024130;28;20471;-89
2022/07/16 11:38:58;;;;;;;544.77;519.73;;;23.10;91.60;;;;;;5016067;28;20815;-86
2022/07/16 11:41:25;;;;;;;583.77;555.43;;;23.10;91.40;;;;;;5042612;28;20599;-87
2022/07/16 11:43:51;;;;;;;630.43;598.33;;;23.00;91.80;;;;;;5036764;28;20463;-88
2022/07/16 11:46:23;;;;;;;629.93;597.90;;;23.10;91.40;;;;;;5027530;28;20463;-88
2022/07/16 11:48:51;;;;;;;630.47;598.37;;;23.10;91.60;;;;;;5036708;28;20451;-87
2022/07/16 11:51:19;;;;;;;646.57;613.07;;;23.00;91.40;;;;;;5029334;28;20463;-87
2022/07/16 11:53:50;;;;;;;559.03;532.67;;;23.00;91.40;;;;;;5021711;28;20478;-88
2022/07/16 11:56:31;;;;;;;513.10;490.23;;;23.00;91.00;;;;;;5032308;28;20454;-86
2022/07/16 11:58:58;;;;;;;542.80;517.90;;;23.00;91.40;;;;;;5018851;28;20480;-86
2022/07/16 12:01:25;;;;;;;556.43;530.23;;;23.00;91.40;;;;;;5021865;28;20965;-89
2022/07/16 12:03:56;;;;;;;737.63;696.67;;;23.00;91.30;;;;;;5016371;28;20455;-88
2022/07/16 12:06:24;;;;;;;659.43;624.83;;;23.00;91.50;;;;;;5019283;28;20466;-89
2022/07/16 12:08:52;;;;;;;672.47;636.57;;;22.90;91.70;;;;;;5033225;28;20459;-88
2022/07/16 12:11:18;;;;;;;731.87;691.63;;;22.90;90.60;;;;;;5032583;28;20515;-90
2022/07/16 12:13:52;;;;;;;654.73;620.67;;;22.90;91.00;;;;;;5011734;28;20486;-88
2022/07/16 12:16:20;;;;;;;606.43;576.27;;;22.90;91.50;;;;;;5026683;28;20490;-87
2022/07/16 12:19:00;;;;;;;677.30;641.40;;;22.90;91.20;;;;;;5035563;28;20500;-87
2022/07/16 12:21:30;;;;;;;709.93;671.57;;;22.80;91.20;;;;;;5027665;28;20453;-88